CFL3 weather

Black Diamond (Oilfields General Hospital) Heliport
Black Diamond, Alberta, Canada

Public forecast

Using degrees Celsius for public forecast. Weather courtesy of forecast.io.

METAR (pilot weather report)

Closest report is Calgary / Springbank Airport, 26.0 nm (48.2 km) NNW. Retrieved 2019/06/24 16:00 UTC (38 minutes ago):

CYBW 241600Z AUTO 33010KT 9SM FEW240 12/07 A2986 RMK SLP123 DENSITY ALT 4600FT

TAF (pilot weather forecast)

Closest forecast is Calgary / Springbank Airport, 26.0 nm (48.2 km) NNW. Retrieved 2019/06/24 12:39 UTC (4 hours ago):

TAF CYBW 241138Z 2412/2424 30010KT P6SM SCT050 BKN090 TEMPO 2412/2414 4SM -SHRA BR BKN040 FM241400 32008KT P6SM SCT040 BKN080 FM241600 30006KT P6SM SCT040 SCT250 FM242100 VRB03KT P6SM BKN040 TEMPO 2421/2424 P6SM -SHRA VCTS BKN040CB RMK FCST BASED ON AUTO OBS. NXT FCST BY 241800Z